Sand Point, AK

8:26 PM AKST on February 27, 2015 (GMT -0900)
Sand Point | Change Station
CLOSE
Current Station
Airport
Location: Sand Point,
Elevation: 23 ft
Nearby Weather Stations

Elev 23 ft 55.31 °N, 160.52 °W | Updated 10 minutes ago

Overcast
Overcast
43 °F
Feels Like 39 °F
N
6
Wind Variable Wind from NNE

Today
High -- | Low -- °F
--% Chance of Precip.
Yesterday
High -- | Low -- °F
Precip. -- in
8:37 AM 7:13 PM
Waxing Gibbous, 74% visible
Pressure 30.13 in
Visibility 9.0 miles
Clouds Overcast 800 ft
Windchill 39 °F
Dew Point 43 °F
Humidity 100%
Rainfall 0.19 in
Snow Depth Not available.
UV 0 out of 12
Pollen Not available.
Air Quality Not available.
Flu Activity Not available.
METAR PASD 280516Z AUTO 03005KT 9SM OVC008 06/06 A3013 RMK AO1

More Conditions Fewer Conditions

Pressure 30.13 in
Visibility 9.0 miles
Clouds Overcast 800 ft
Windchill 39 °F
Dew Point 43 °F
Humidity 100%
Rainfall 0.19 in
Snow Depth Not available.
UV 0 out of 12
Pollen Not available.
Air Quality Not available.
Flu Activity Not available.
METAR PASD 280516Z AUTO 03005KT 9SM OVC008 06/06 A3013 RMK AO1

More Conditions Fewer Conditions

10-Day Weather Forecast

Almanac

Astronomy

Feb. 27, 2015 Rise Set
Actual Time
Civil Twilight
Nautical Twilight
Astronomical Twilight
Moon
Length of Visible Light
Length of Day
Tomorrow will be .
, % of the Moon is Illuminated

Today's Extremes

State Highs State Lows

Community

WunderPhotos

Upload Photos

1,800,973 photos uploaded!

WunderBlogs® & News

Nearby

Air Quality

  Air Quality AQ Index Pollutant
Not available.

Snow Depth

Station Depth Elevation

Earthquake Activity

City Distance Mag. Time & Date
Minimum magnitude displayed is 2.5.

Coastal Water Temperatures

Place Temperature

Nearby Weather Stations